Songa Opal — V7RO5 — position and weather

sailwx.info

Track history (hours):
 
Tides and Currents Weather Stations Pressure Air Temp Water Temp Dewpoint Dewpoint Depression Visibility Wind Speed Wind Dir Waves Ship Positions

Songa Opal

Last reported at 2017-Apr-25 18:05 UTC. Time now 2017-May-24 17:43 UTC.
Position S 34°45' E 018°21'.
Warning: this ship's position is 28 days out of date.

Length 148 m; draft 8.5 m.

Type: Ship. MMSI: 538003550.

Date/timePositionNaut miles runAvg speedWind from/ knotsBaromVisibWave heightAir tempDewpointWater temp
2017-Apr-25 18:05S 34°45' E 018°21'712.8
2017-Apr-25 17:32S 34°48' E 018°29'113.0
2017-Apr-25 17:30S 34°48' E 018°29'  
2017-Apr-23 05:13S 32°37' E 031°06'313.6
2017-Apr-23 05:00S 32°36' E 031°09'3913.2
2017-Apr-23 02:05S 32°23' E 031°52'9813.3
2017-Apr-22 18:46S 31°50' E 033°40'613.6
2017-Apr-22 18:18S 31°47' E 033°47'513.3
2017-Apr-22 17:56S 31°46' E 033°53'613.2
2017-Apr-22 17:30S 31°44' E 033°59'1313.5
2017-Apr-22 16:32S 31°40' E 034°14'913.6
2017-Apr-22 15:53S 31°38' E 034°24'513.4
2017-Apr-22 15:30S 31°37' E 034°29'713.4
2017-Apr-22 15:00S 31°35' E 034°37'1612.6
2017-Apr-22 13:46S 31°30' E 034°54'  
Track history (hours):
 
Tides and Currents Weather Stations Pressure Air Temp Water Temp Dewpoint Dewpoint Depression Visibility Wind Speed Wind Dir Waves Ship Positions

Songa Opal

Last reported at 2017-Apr-25 18:05 UTC. Time now 2017-May-24 17:43 UTC.
Position S 34°45' E 018°21'.
Warning: this ship's position is 28 days out of date.

Length 148 m; draft 8.5 m.

Type: Ship. MMSI: 538003550.

Date/timePositionNaut miles runAvg speedWind from/ knotsBaromVisibWave heightAir tempDewpointWater temp
2017-Apr-25 18:05S 34°45' E 018°21'712.8
2017-Apr-25 17:32S 34°48' E 018°29'113.0
2017-Apr-25 17:30S 34°48' E 018°29'  
2017-Apr-23 05:13S 32°37' E 031°06'313.6
2017-Apr-23 05:00S 32°36' E 031°09'3913.2
2017-Apr-23 02:05S 32°23' E 031°52'9813.3
2017-Apr-22 18:46S 31°50' E 033°40'613.6
2017-Apr-22 18:18S 31°47' E 033°47'513.3
2017-Apr-22 17:56S 31°46' E 033°53'613.2
2017-Apr-22 17:30S 31°44' E 033°59'1313.5
2017-Apr-22 16:32S 31°40' E 034°14'913.6
2017-Apr-22 15:53S 31°38' E 034°24'513.4
2017-Apr-22 15:30S 31°37' E 034°29'713.4
2017-Apr-22 15:00S 31°35' E 034°37'1612.6
2017-Apr-22 13:46S 31°30' E 034°54'  

Dump ship's entire track history